Spottwood, South Dakota
Current Conditions -  °F | °C
As of 8:55 AM on Saturday 20 Dec 2014 (Local Time) from KHON Reporting Station
Moderate Fog Moderate Fog  
Wind Chill: 16°   Ceiling: 200
Heat Index: 25°   Visibility: 0.5mi
Dew Point: 24°   Wind: 9mph
Humidity: 96%   Direction: 180°S
Pressure: 30.03"   Gusts: NA
Location:  44.7205°N, 98.5844°W
Report Text: KHON 201455Z AUTO 18008KT 1/2SM FZFG VV002 M04/M04 A3003 RMK AO2 SLP186 I1001 I3004 T10391044 50002
Loading
Personal Weather Stations






























Interactive Weather Map New forecast layout! Learn more

10-Day Weather Forecast

Advertisements
Track Severe Weather on mobile